CAGO2: Washita River At Carnegie, OK

                                SHEF ID:       CAGO2     Washita River at Carnegie, OK
STATION TYPE:
Regulating: Stage = 23.00, Flow = 9915

PRECIP STAGE STAGE(2) RIV-FLOW BAT-LOAD
in ft ft cfs volt
Ccp-Rev Ccp-Rev Ccp-Rev Ccp-Rev Ccp-Rev
(America/Chicago)
09/24 00:00 0.00 4.42 3.57 188 12.33
09/24 01:00 0.00 4.37 3.57 182 12.31
09/24 02:00 0.00 4.34 3.57 179 12.31
09/24 03:00 0.00 4.29 3.57 173 12.30
09/24 04:00 0.00 4.26 3.57 169 12.30
09/24 05:00 0.00 4.22 3.57 164 12.29
09/24 06:00 0.00 4.19 3.57 161 12.29
09/24 07:00 0.00 4.15 3.57 156 12.29
09/24 08:00 0.00 4.12 3.57 153 12.27
09/24 09:00 0.00 4.08 3.57 148 12.27
09/24 10:00 0.00 4.05 3.57 145 12.27
09/24 11:00 0.00 4.02 3.57 142 12.27
09/24 12:00 0.00 3.99 3.56 138 12.27
09/24 13:00 0.00 3.95 3.56 134 12.27
09/24 14:00 0.00 3.93 3.55 132 12.27
09/24 15:00 0.00 3.91 3.55 130 12.27
09/24 16:00 0.00 3.86 3.55 124 12.28
09/24 17:00 0.00 3.84 3.55 122 12.29
09/24 18:00 0.00 3.82 3.55 120 12.30
09/24 19:00 0.00 3.80 3.56 118 12.30
09/24 20:00 0.00 3.78 3.57 116 12.30
09/24 21:00 0.00 3.76 3.57 114 12.30
09/24 22:00 0.00 3.74 3.57 112 12.30
09/24 23:00 0.00 3.73 3.57 111 12.28
Data processed at Thu 25Sep2025 04:21 GMT

NOTICE: If you are parsing this page

Please convert to using our Data API. Starting January 1st, 2026 we will be migrating to: https://water.usace.army.mil with modern pages rendered in JavaScript. You will no longer be able to scrape this page! CWMSDataAPI (CDA)

Timeseries IDs (TSIDs)

TSIDs used from left to right in the data table
CARN.Precip-Inc.Total.1Hour.1Hour.Ccp-Rev
CARN.Stage.Inst.1Hour.0.Ccp-Rev
CARN.Stage-Alt.Inst.1Hour.0.Ccp-Rev
CARN.Flow.Inst.1Hour.0.Ccp-Rev
CARN.Volt-Battery Load.Inst.1Hour.0.Ccp-Rev

                            

All information presented herein is the property of the government of the United States of America and may be revised or deleted at any time without prior notice. Dissemination of this information without the expressed written consent of the Public Affairs Office, Tulsa District U.S. Army Corps of Engineers is strictly prohibited. These data are gathered electronically and, as presented, have NOT undergone any form of quality control. These data are NOT guaranteed to be valid or correct.